MSC Florentina — HPFH — position and weather

sailwx.info

Track history (hours):
 
Tides and Currents Weather Stations Pressure Air Temp Water Temp Dewpoint Dewpoint Depression Visibility Wind Speed Wind Dir Waves Ship Positions

MSC Florentina

Last reported at 2015-Jul-01 12:10 UTC. Time now 2015-Jul-01 12:49 UTC.
Position N 40°57' E 001°58'.

Length 300 m; draft 11 m.

Type: Ship. MMSI: 352870000.

Date/timePositionNaut miles runAvg speedWind from/ knotsBaromVisibWave heightAir tempDewpointWater temp
2015-Jul-01 12:10N 40°57' E 001°58'1418.8
2015-Jul-01 11:26N 40°45' E 001°50'1718.9
2015-Jul-01 10:34N 40°30' E 001°40'1919.1
2015-Jul-01 09:33N 40°13' E 001°29'1919.2
2015-Jul-01 08:34N 39°56' E 001°17'1919.4
2015-Jul-01 07:34N 39°39' E 001°05'1919.4
2015-Jul-01 06:33N 39°21' E 000°54'2019.6
2015-Jul-01 05:33N 39°04' E 000°42'2019.7
2015-Jul-01 04:33N 38°46' E 000°31'1918.9
2015-Jul-01 03:33N 38°31' E 000°17'1918.7
2015-Jul-01 02:33N 38°15' E 000°04'1918.8
2015-Jul-01 01:34N 37°59' W 000°08'1918.7
2015-Jul-01 00:33N 37°43' W 000°20'1818.4
2015-Jun-30 23:33N 37°29' W 000°36'1918.6
2015-Jun-30 22:34N 37°17' W 000°54'2319.2
2015-Jun-30 21:22N 37°02' W 001°15'2119.3
2015-Jun-30 20:17N 36°48' W 001°34'1419.0
2015-Jun-30 19:33N 36°39' W 001°47'2019.2
2015-Jun-30 18:30N 36°25' W 002°06'2619.0
2015-Jun-30 17:07N 36°19' W 002°37'13420.4
2015-Jun-30 10:34N 36°02' W 005°22'8 7.6
2015-Jun-30 09:34N 36°08' W 005°26'0 0.0
2015-Jun-30 07:31N 36°08' W 005°26'0 0.0
2015-Jun-30 06:25N 36°08' W 005°26'0 0.0
2015-Jun-30 05:28N 36°08' W 005°26'0 0.0
2015-Jun-30 03:13N 36°08' W 005°26'0 0.0
2015-Jun-30 01:13N 36°08' W 005°26'0 0.0
2015-Jun-30 00:31N 36°08' W 005°26'0 0.0
2015-Jun-29 23:32N 36°08' W 005°26'0 0.0
2015-Jun-29 22:29N 36°08' W 005°26'0 0.0
2015-Jun-29 21:29N 36°08' W 005°26'0 0.0
2015-Jun-29 17:32N 36°08' W 005°26'2 2.4
2015-Jun-29 16:33N 36°07' W 005°24'1110.6
2015-Jun-29 15:33N 36°04' W 005°11'2713.4
2015-Jun-29 13:31N 35°54' W 005°43'3031.3
2015-Jun-29 12:33N 36°07' W 005°09'2 1.7
2015-Jun-29 11:22N 36°07' W 005°11'1 1.4
2015-Jun-29 10:34N 36°07' W 005°13'5 4.7
2015-Jun-29 09:34N 36°05' W 005°18'10 9.6
2015-Jun-29 08:33N 35°58' W 005°26'3227.9
2015-Jun-29 07:25N 35°54' W 006°05'12 4.2
2015-Jun-29 04:33N 35°56' W 006°19'1211.9
2015-Jun-29 03:33N 35°59' W 006°34'1211.6
2015-Jun-29 02:33N 36°02' W 006°47'48 7.6
2015-Jun-28 20:12N 36°09' W 007°46'1 0.9
2015-Jun-28 19:27N 36°09' W 007°47'6 7.1
2015-Jun-28 18:33N 36°13' W 007°53'1212.1
2015-Jun-28 17:33N 36°18' W 008°07'1111.5
2015-Jun-28 16:33N 36°22' W 008°20'1111.4
2015-Jun-28 15:33N 36°25' W 008°33'1111.2
2015-Jun-28 14:33N 36°28' W 008°47'1111.3
2015-Jun-28 13:33N 36°31' W 009°00'1111.4
2015-Jun-28 12:33N 36°34' W 009°14'1110.9
2015-Jun-28 11:33N 36°40' W 009°26'1110.9
2015-Jun-28 10:33N 36°49' W 009°33'1111.2
2015-Jun-28 09:33N 36°60' W 009°35'1111.4
2015-Jun-28 08:33N 37°10' W 009°28'1211.8
2015-Jun-28 07:33N 37°20' W 009°20'1212.1
2015-Jun-28 06:33N 37°30' W 009°12'1212.1
2015-Jun-28 05:33N 37°39' W 009°02'1211.9
2015-Jun-28 04:33N 37°49' W 008°54'7 7.1
2015-Jun-28 03:33N 37°56' W 008°51'0 0.0
2015-Jun-28 02:33N 37°56' W 008°51'0 0.0
2015-Jun-28 01:33N 37°56' W 008°51'0 0.0
2015-Jun-28 00:33N 37°56' W 008°51'0 0.0
2015-Jun-27 23:33N 37°56' W 008°51'0 0.0
2015-Jun-27 22:33N 37°56' W 008°51'0 0.0
2015-Jun-27 21:33N 37°56' W 008°51'0 0.0
2015-Jun-27 20:33N 37°56' W 008°51'0 0.0
2015-Jun-27 19:33N 37°56' W 008°51'0 0.0
2015-Jun-27 18:33N 37°56' W 008°51'1 1.5
2015-Jun-27 17:33N 37°55' W 008°51'5 5.3
2015-Jun-27 16:33N 37°54' W 008°57'1413.8
2015-Jun-27 15:34N 37°55' W 009°15'1817.6
2015-Jun-27 14:34N 37°58' W 009°37'1817.6
2015-Jun-27 13:34N 37°59' W 009°59'1817.5
2015-Jun-27 12:33N 38°01' W 010°21'1717.5
2015-Jun-27 11:34N 38°03' W 010°43'1716.9
2015-Jun-27 10:34N 38°05' W 011°04'1716.6
2015-Jun-27 09:34N 38°07' W 011°25'1616.2
2015-Jun-27 08:33N 38°09' W 011°46'1616.3
2015-Jun-27 07:33N 38°10' W 012°06'1616.5
2015-Jun-27 06:33N 38°12' W 012°27'1716.7
2015-Jun-27 05:33N 38°14' W 012°48'1716.7
2015-Jun-27 04:33N 38°16' W 013°10'1716.5
2015-Jun-27 03:33N 38°17' W 013°31'1717.0
2015-Jun-27 02:33N 38°19' W 013°52'1716.9
2015-Jun-27 01:33N 38°21' W 014°14'1717.0
2015-Jun-27 00:33N 38°23' W 014°35'1717.1
2015-Jun-26 23:33N 38°25' W 014°57'1717.4
2015-Jun-26 22:33N 38°27' W 015°19'3517.4
2015-Jun-26 20:33N 38°30' W 016°03'1717.3
2015-Jun-26 19:33N 38°32' W 016°25'1717.2
2015-Jun-26 18:33N 38°34' W 016°47'2017.1
2015-Jun-26 17:25N 38°36' W 017°12'48817.5
2015-Jun-25 13:33N 39°28' W 027°36'1717.5
2015-Jun-25 12:33N 39°30' W 027°58'1817.6
2015-Jun-25 11:33N 39°26' W 028°21'1717.5
2015-Jun-25 10:34N 39°22' W 028°43'1817.6
2015-Jun-25 09:33N 39°18' W 029°05'1817.9
2015-Jun-25 08:33N 39°14' W 029°27'1818.3
2015-Jun-25 07:34N 39°10' W 029°50'1818.1
2015-Jun-25 06:33N 39°06' W 030°13'1817.9
2015-Jun-25 05:33N 39°02' W 030°36'1817.9
2015-Jun-25 04:34N 38°58' W 030°58'1817.8
2015-Jun-25 03:33N 38°54' W 031°20'1817.8
2015-Jun-25 02:33N 38°52' W 031°43'1817.7
2015-Jun-25 01:32N 38°51' W 032°06'  
Track history (hours):
 
Tides and Currents Weather Stations Pressure Air Temp Water Temp Dewpoint Dewpoint Depression Visibility Wind Speed Wind Dir Waves Ship Positions

MSC Florentina

Last reported at 2015-Jul-01 12:10 UTC. Time now 2015-Jul-01 12:50 UTC.
Position N 40°57' E 001°58'.

Length 300 m; draft 11 m.

Type: Ship. MMSI: 352870000.

Date/timePositionNaut miles runAvg speedWind from/ knotsBaromVisibWave heightAir tempDewpointWater temp
2015-Jul-01 12:10N 40°57' E 001°58'1418.8
2015-Jul-01 11:26N 40°45' E 001°50'1718.9
2015-Jul-01 10:34N 40°30' E 001°40'1919.1
2015-Jul-01 09:33N 40°13' E 001°29'1919.2
2015-Jul-01 08:34N 39°56' E 001°17'1919.4
2015-Jul-01 07:34N 39°39' E 001°05'1919.4
2015-Jul-01 06:33N 39°21' E 000°54'2019.6
2015-Jul-01 05:33N 39°04' E 000°42'2019.7
2015-Jul-01 04:33N 38°46' E 000°31'1918.9
2015-Jul-01 03:33N 38°31' E 000°17'1918.7
2015-Jul-01 02:33N 38°15' E 000°04'1918.8
2015-Jul-01 01:34N 37°59' W 000°08'1918.7
2015-Jul-01 00:33N 37°43' W 000°20'1818.4
2015-Jun-30 23:33N 37°29' W 000°36'1918.6
2015-Jun-30 22:34N 37°17' W 000°54'2319.2
2015-Jun-30 21:22N 37°02' W 001°15'2119.3
2015-Jun-30 20:17N 36°48' W 001°34'1419.0
2015-Jun-30 19:33N 36°39' W 001°47'2019.2
2015-Jun-30 18:30N 36°25' W 002°06'2619.0
2015-Jun-30 17:07N 36°19' W 002°37'13420.4
2015-Jun-30 10:34N 36°02' W 005°22'8 7.6
2015-Jun-30 09:34N 36°08' W 005°26'0 0.0
2015-Jun-30 07:31N 36°08' W 005°26'0 0.0
2015-Jun-30 06:25N 36°08' W 005°26'0 0.0
2015-Jun-30 05:28N 36°08' W 005°26'0 0.0
2015-Jun-30 03:13N 36°08' W 005°26'0 0.0
2015-Jun-30 01:13N 36°08' W 005°26'0 0.0
2015-Jun-30 00:31N 36°08' W 005°26'0 0.0
2015-Jun-29 23:32N 36°08' W 005°26'0 0.0
2015-Jun-29 22:29N 36°08' W 005°26'0 0.0
2015-Jun-29 21:29N 36°08' W 005°26'0 0.0
2015-Jun-29 17:32N 36°08' W 005°26'2 2.4
2015-Jun-29 16:33N 36°07' W 005°24'1110.6
2015-Jun-29 15:33N 36°04' W 005°11'2713.4
2015-Jun-29 13:31N 35°54' W 005°43'3031.3
2015-Jun-29 12:33N 36°07' W 005°09'2 1.7
2015-Jun-29 11:22N 36°07' W 005°11'1 1.4
2015-Jun-29 10:34N 36°07' W 005°13'5 4.7
2015-Jun-29 09:34N 36°05' W 005°18'10 9.6
2015-Jun-29 08:33N 35°58' W 005°26'3227.9
2015-Jun-29 07:25N 35°54' W 006°05'12 4.2
2015-Jun-29 04:33N 35°56' W 006°19'1211.9
2015-Jun-29 03:33N 35°59' W 006°34'1211.6
2015-Jun-29 02:33N 36°02' W 006°47'48 7.6
2015-Jun-28 20:12N 36°09' W 007°46'1 0.9
2015-Jun-28 19:27N 36°09' W 007°47'6 7.1
2015-Jun-28 18:33N 36°13' W 007°53'1212.1
2015-Jun-28 17:33N 36°18' W 008°07'1111.5
2015-Jun-28 16:33N 36°22' W 008°20'1111.4
2015-Jun-28 15:33N 36°25' W 008°33'1111.2
2015-Jun-28 14:33N 36°28' W 008°47'1111.3
2015-Jun-28 13:33N 36°31' W 009°00'1111.4
2015-Jun-28 12:33N 36°34' W 009°14'1110.9
2015-Jun-28 11:33N 36°40' W 009°26'1110.9
2015-Jun-28 10:33N 36°49' W 009°33'1111.2
2015-Jun-28 09:33N 36°60' W 009°35'1111.4
2015-Jun-28 08:33N 37°10' W 009°28'1211.8
2015-Jun-28 07:33N 37°20' W 009°20'1212.1
2015-Jun-28 06:33N 37°30' W 009°12'1212.1
2015-Jun-28 05:33N 37°39' W 009°02'1211.9
2015-Jun-28 04:33N 37°49' W 008°54'7 7.1
2015-Jun-28 03:33N 37°56' W 008°51'0 0.0
2015-Jun-28 02:33N 37°56' W 008°51'0 0.0
2015-Jun-28 01:33N 37°56' W 008°51'0 0.0
2015-Jun-28 00:33N 37°56' W 008°51'0 0.0
2015-Jun-27 23:33N 37°56' W 008°51'0 0.0
2015-Jun-27 22:33N 37°56' W 008°51'0 0.0
2015-Jun-27 21:33N 37°56' W 008°51'0 0.0
2015-Jun-27 20:33N 37°56' W 008°51'0 0.0
2015-Jun-27 19:33N 37°56' W 008°51'0 0.0
2015-Jun-27 18:33N 37°56' W 008°51'1 1.5
2015-Jun-27 17:33N 37°55' W 008°51'5 5.3
2015-Jun-27 16:33N 37°54' W 008°57'1413.8
2015-Jun-27 15:34N 37°55' W 009°15'1817.6
2015-Jun-27 14:34N 37°58' W 009°37'1817.6
2015-Jun-27 13:34N 37°59' W 009°59'1817.5
2015-Jun-27 12:33N 38°01' W 010°21'1717.5
2015-Jun-27 11:34N 38°03' W 010°43'1716.9
2015-Jun-27 10:34N 38°05' W 011°04'1716.6
2015-Jun-27 09:34N 38°07' W 011°25'1616.2
2015-Jun-27 08:33N 38°09' W 011°46'1616.3
2015-Jun-27 07:33N 38°10' W 012°06'1616.5
2015-Jun-27 06:33N 38°12' W 012°27'1716.7
2015-Jun-27 05:33N 38°14' W 012°48'1716.7
2015-Jun-27 04:33N 38°16' W 013°10'1716.5
2015-Jun-27 03:33N 38°17' W 013°31'1717.0
2015-Jun-27 02:33N 38°19' W 013°52'1716.9
2015-Jun-27 01:33N 38°21' W 014°14'1717.0
2015-Jun-27 00:33N 38°23' W 014°35'1717.1
2015-Jun-26 23:33N 38°25' W 014°57'1717.4
2015-Jun-26 22:33N 38°27' W 015°19'3517.4
2015-Jun-26 20:33N 38°30' W 016°03'1717.3
2015-Jun-26 19:33N 38°32' W 016°25'1717.2
2015-Jun-26 18:33N 38°34' W 016°47'2017.1
2015-Jun-26 17:25N 38°36' W 017°12'48817.5
2015-Jun-25 13:33N 39°28' W 027°36'1717.5
2015-Jun-25 12:33N 39°30' W 027°58'1817.6
2015-Jun-25 11:33N 39°26' W 028°21'1717.5
2015-Jun-25 10:34N 39°22' W 028°43'1817.6
2015-Jun-25 09:33N 39°18' W 029°05'1817.9
2015-Jun-25 08:33N 39°14' W 029°27'1818.3
2015-Jun-25 07:34N 39°10' W 029°50'1818.1
2015-Jun-25 06:33N 39°06' W 030°13'1817.9
2015-Jun-25 05:33N 39°02' W 030°36'1817.9
2015-Jun-25 04:34N 38°58' W 030°58'1817.8
2015-Jun-25 03:33N 38°54' W 031°20'1817.8
2015-Jun-25 02:33N 38°52' W 031°43'1817.7
2015-Jun-25 01:32N 38°51' W 032°06'  

Dump ship's entire track history